Time;durP1;ratioP1;P1;durP2;ratioP2;P2;SDS_P1;SDS_P2;PMS_P1;PMS_P2;Temp;Humidity;BMP_temperature;BMP_pressure;BME280_temperature;BME280_humidity;BME280_pressure;Samples;Min_cycle;Max_cycle;Signal;HPM_P1;HPM_P2
2022/04/15 00:01:44;;;;;;;10.30;6.75;;;;;;;;;;5025489;28;20053;-63
2022/04/15 00:04:11;;;;;;;18.15;7.20;;;;;;;;;;5025457;28;20081;-62
2022/04/15 00:06:37;;;;;;;14.02;8.30;;;;;;;;;;5025339;28;20104;-62
2022/04/15 00:09:03;;;;;;;8.98;7.03;;;;;;;;;;5025335;28;20116;-62
2022/04/15 00:11:31;;;;;;;18.23;6.90;;;;;;;;;;5025298;28;20041;-61
2022/04/15 00:13:57;;;;;;;14.85;7.80;;;;;;;;;;5007580;28;20060;-62
2022/04/15 00:16:23;;;;;;;11.65;7.50;;;;;;;;;;5025278;28;20045;-62
2022/04/15 00:18:49;;;;;;;12.70;7.40;;;;;;;;;;5025199;28;20112;-63
2022/04/15 00:21:15;;;;;;;18.88;7.15;;;;;;;;;;5025225;28;20045;-62
2022/04/15 00:23:41;;;;;;;11.35;7.05;;;;;;;;;;5025085;28;20397;-63
2022/04/15 00:26:07;;;;;;;11.57;7.75;;;;;;;;;;5025165;28;20042;-63
2022/04/15 00:28:34;;;;;;;13.77;7.20;;;;;;;;;;5024523;28;20038;-63
2022/04/15 00:31:00;;;;;;;13.82;7.00;;;;;;;;;;5025085;28;20045;-62
2022/04/15 00:33:26;;;;;;;18.58;7.40;;;;;;;;;;5024701;28;20053;-63
2022/04/15 00:35:52;;;;;;;11.77;5.90;;;;;;;;;;5024977;28;20070;-63
2022/04/15 00:38:19;;;;;;;15.60;6.00;;;;;;;;;;5025136;28;20065;-63
2022/04/15 00:40:45;;;;;;;10.48;5.40;;;;;;;;;;5025177;28;20050;-63
2022/04/15 00:43:11;;;;;;;13.85;5.10;;;;;;;;;;5024983;28;20097;-63
2022/04/15 00:45:37;;;;;;;8.20;4.55;;;;;;;;;;5024825;28;20073;-63
2022/04/15 00:48:04;;;;;;;10.85;4.38;;;;;;;;;;5024739;28;20412;-62
2022/04/15 00:50:31;;;;;;;10.67;4.63;;;;;;;;;;5024730;28;20050;-62
2022/04/15 00:52:58;;;;;;;8.07;4.88;;;;;;;;;;5024995;28;20376;-62
2022/04/15 00:55:25;;;;;;;12.77;5.03;;;;;;;;;;5025017;28;20113;-62
2022/04/15 00:57:55;;;;;;;10.43;4.72;;;;;;;;;;5024825;28;20626;-63
2022/04/15 01:00:21;;;;;;;10.23;4.70;;;;;;;;;;5024824;28;20060;-62
2022/04/15 01:02:47;;;;;;;10.95;4.75;;;;;;;;;;5024506;28;20684;-62
2022/04/15 01:05:14;;;;;;;6.10;3.72;;;;;;;;;;5024663;28;20073;-62
2022/04/15 01:07:41;;;;;;;13.18;4.25;;;;;;;;;;5024815;28;20056;-63
2022/04/15 01:10:08;;;;;;;4.88;3.95;;;;;;;;;;5024706;28;20042;-63
2022/04/15 01:12:37;;;;;;;15.68;4.28;;;;;;;;;;5024594;28;20506;-62
2022/04/15 01:15:05;;;;;;;6.75;3.30;;;;;;;;;;5024834;28;20042;-62
2022/04/15 01:17:33;;;;;;;10.82;5.03;;;;;;;;;;5024489;28;20046;-63
2022/04/15 01:20:00;;;;;;;14.55;5.43;;;;;;;;;;5024435;28;20054;-63
2022/04/15 01:22:31;;;;;;;12.07;4.32;;;;;;;;;;5024688;28;20046;-62
2022/04/15 01:24:57;;;;;;;10.88;4.50;;;;;;;;;;5007076;28;20057;-62
2022/04/15 01:27:27;;;;;;;9.32;4.45;;;;;;;;;;5024664;28;20408;-62
2022/04/15 01:29:53;;;;;;;16.48;5.13;;;;;;;;;;5024422;28;20077;-62
2022/04/15 01:32:19;;;;;;;8.38;4.85;;;;;;;;;;5024049;28;20513;-62
2022/04/15 01:34:45;;;;;;;11.32;4.47;;;;;;;;;;5024385;28;20102;-62
2022/04/15 01:37:12;;;;;;;16.85;5.75;;;;;;;;;;5024611;28;20393;-62
2022/04/15 01:39:39;;;;;;;12.07;5.22;;;;;;;;;;5024555;28;20105;-62
2022/04/15 01:42:05;;;;;;;19.40;5.63;;;;;;;;;;5017225;28;20081;-62
2022/04/15 01:44:31;;;;;;;13.40;4.80;;;;;;;;;;5008409;28;20044;-61
2022/04/15 01:46:57;;;;;;;16.88;6.57;;;;;;;;;;5008278;28;20077;-62
2022/04/15 01:49:23;;;;;;;12.15;5.22;;;;;;;;;;5008331;28;20380;-63
2022/04/15 01:51:49;;;;;;;18.95;4.97;;;;;;;;;;5008325;28;20050;-62
2022/04/15 01:54:15;;;;;;;14.60;5.60;;;;;;;;;;5008131;28;20050;-62
2022/04/15 01:56:41;;;;;;;30.67;6.93;;;;;;;;;;5008217;28;20047;-63
2022/04/15 01:59:09;;;;;;;15.32;5.22;;;;;;;;;;5008099;28;20042;-63
2022/04/15 02:01:36;;;;;;;13.10;6.93;;;;;;;;;;5007857;28;20750;-63
2022/04/15 02:04:03;;;;;;;17.45;6.45;;;;;;;;;;5008103;28;20050;-62
2022/04/15 02:06:29;;;;;;;18.13;6.63;;;;;;;;;;5008195;28;20057;-62
2022/04/15 02:08:55;;;;;;;14.27;6.93;;;;;;;;;;5008066;28;20055;-62
2022/04/15 02:11:21;;;;;;;16.27;6.40;;;;;;;;;;5007960;28;20046;-63
2022/04/15 02:13:47;;;;;;;23.17;7.03;;;;;;;;;;5007924;28;20053;-62
2022/04/15 02:16:13;;;;;;;14.90;7.28;;;;;;;;;;5007841;28;20046;-62
2022/04/15 02:18:39;;;;;;;18.17;6.95;;;;;;;;;;5007752;28;20052;-63
2022/04/15 02:21:05;;;;;;;21.83;7.57;;;;;;;;;;5007930;28;20048;-63
2022/04/15 02:23:31;;;;;;;18.80;7.97;;;;;;;;;;5007671;28;20054;-62
2022/04/15 02:25:57;;;;;;;16.58;8.50;;;;;;;;;;5007735;28;20046;-62
2022/04/15 02:28:23;;;;;;;25.58;8.02;;;;;;;;;;5007601;28;20038;-62
2022/04/15 02:30:50;;;;;;;15.57;8.13;;;;;;;;;;5007454;28;20046;-63
2022/04/15 02:33:16;;;;;;;24.63;10.55;;;;;;;;;;5007166;28;20082;-62
2022/04/15 02:35:42;;;;;;;20.83;12.43;;;;;;;;;;5007696;28;20433;-62
2022/04/15 02:38:08;;;;;;;23.05;13.27;;;;;;;;;;5007379;28;20058;-62
2022/04/15 02:40:34;;;;;;;32.45;14.90;;;;;;;;;;5007425;28;20042;-62
2022/04/15 02:43:02;;;;;;;22.88;13.75;;;;;;;;;;5007453;28;20117;-63
2022/04/15 02:45:31;;;;;;;26.10;15.35;;;;;;;;;;5007328;28;20161;-63
2022/04/15 02:47:57;;;;;;;24.00;14.95;;;;;;;;;;5007372;28;20042;-62
2022/04/15 02:50:23;;;;;;;19.95;13.65;;;;;;;;;;4989569;28;20089;-62
2022/04/15 02:52:50;;;;;;;18.10;12.88;;;;;;;;;;5006697;28;20054;-62
2022/04/15 02:55:16;;;;;;;15.32;10.77;;;;;;;;;;5007270;28;20049;-62
2022/04/15 02:57:42;;;;;;;14.57;10.70;;;;;;;;;;5007168;28;20042;-62
2022/04/15 03:00:08;;;;;;;12.70;10.00;;;;;;;;;;5006853;28;20097;-63
2022/04/15 03:02:35;;;;;;;11.93;9.45;;;;;;;;;;5006929;28;20042;-62
2022/04/15 03:05:03;;;;;;;8.60;6.28;;;;;;;;;;5007080;28;20054;-62
2022/04/15 03:07:29;;;;;;;10.95;7.88;;;;;;;;;;5007027;28;20046;-63
2022/04/15 03:09:55;;;;;;;9.15;6.95;;;;;;;;;;5006924;28;20101;-62
2022/04/15 03:12:22;;;;;;;9.90;7.15;;;;;;;;;;5006897;28;20476;-62
2022/04/15 03:14:50;;;;;;;9.27;7.10;;;;;;;;;;5006789;28;20048;-62
2022/04/15 03:17:16;;;;;;;9.55;6.70;;;;;;;;;;5006739;28;20057;-62
2022/04/15 03:19:43;;;;;;;10.45;7.47;;;;;;;;;;5006773;28;20038;-62
2022/04/15 03:22:09;;;;;;;11.20;7.10;;;;;;;;;;5006569;28;20061;-62
2022/04/15 03:24:35;;;;;;;9.43;6.50;;;;;;;;;;5006648;28;20601;-61
2022/04/15 03:27:01;;;;;;;8.57;6.45;;;;;;;;;;5006539;28;20050;-61
2022/04/15 03:29:27;;;;;;;8.00;6.45;;;;;;;;;;5006435;28;20073;-61
2022/04/15 03:31:53;;;;;;;8.68;7.40;;;;;;;;;;5006361;28;20058;-62
2022/04/15 03:34:19;;;;;;;8.40;7.22;;;;;;;;;;5006302;28;20054;-61
2022/04/15 03:36:45;;;;;;;7.55;6.07;;;;;;;;;;5006366;28;20053;-62
2022/04/15 03:39:12;;;;;;;8.20;6.00;;;;;;;;;;5006348;28;20054;-62
2022/04/15 03:41:38;;;;;;;7.47;5.75;;;;;;;;;;5006153;28;20236;-63
2022/04/15 03:44:04;;;;;;;8.40;5.10;;;;;;;;;;5006171;28;20058;-62
2022/04/15 03:46:30;;;;;;;5.22;4.72;;;;;;;;;;5006200;28;20440;-63
2022/04/15 03:48:57;;;;;;;8.80;5.70;;;;;;;;;;5006112;28;20110;-62
2022/04/15 03:51:23;;;;;;;9.20;4.93;;;;;;;;;;5005991;28;20067;-62
2022/04/15 03:53:49;;;;;;;7.72;5.28;;;;;;;;;;5006135;28;20043;-63
2022/04/15 03:56:15;;;;;;;6.45;5.13;;;;;;;;;;4988738;28;20479;-62
2022/04/15 03:58:41;;;;;;;6.07;4.50;;;;;;;;;;5005945;28;20073;-63
2022/04/15 04:01:07;;;;;;;9.02;5.13;;;;;;;;;;5006144;28;20053;-63
2022/04/15 04:03:33;;;;;;;8.43;4.30;;;;;;;;;;4987461;28;20082;-63
2022/04/15 04:05:59;;;;;;;3.90;2.53;;;;;;;;;;4988539;28;20050;-63
2022/04/15 04:08:25;;;;;;;2.90;2.00;;;;;;;;;;5005824;28;20108;-62
2022/04/15 04:10:52;;;;;;;4.13;2.60;;;;;;;;;;5005803;28;20053;-62
2022/04/15 04:13:18;;;;;;;3.00;2.70;;;;;;;;;;4988336;28;20081;-62
2022/04/15 04:15:44;;;;;;;5.68;3.10;;;;;;;;;;5005562;28;20101;-62
2022/04/15 04:18:13;;;;;;;7.63;3.90;;;;;;;;;;5005573;28;20050;-62
2022/04/15 04:20:39;;;;;;;7.10;3.70;;;;;;;;;;5005628;28;20120;-62
2022/04/15 04:23:05;;;;;;;6.25;4.10;;;;;;;;;;5005563;28;20043;-62
2022/04/15 04:25:31;;;;;;;7.90;5.03;;;;;;;;;;4987809;28;20061;-63
2022/04/15 04:27:57;;;;;;;7.32;4.43;;;;;;;;;;5005532;28;20406;-62
2022/04/15 04:30:23;;;;;;;10.63;4.72;;;;;;;;;;5005509;28;20038;-63
2022/04/15 04:32:49;;;;;;;8.27;4.78;;;;;;;;;;5005322;28;20058;-63
2022/04/15 04:35:17;;;;;;;5.28;4.78;;;;;;;;;;5005473;28;20194;-62
2022/04/15 04:37:44;;;;;;;;;;;;;;;;;;5005931;28;20534;-61
2022/04/15 04:40:10;;;;;;;9.45;4.00;;;;;;;;;;5005386;28;19922;-62
2022/04/15 04:42:37;;;;;;;5.50;4.50;;;;;;;;;;5005306;28;20046;-62
2022/04/15 04:45:03;;;;;;;6.22;4.32;;;;;;;;;;5005464;28;20042;-62
2022/04/15 04:47:29;;;;;;;7.57;4.78;;;;;;;;;;5005005;28;20050;-62
2022/04/15 04:49:56;;;;;;;5.75;4.55;;;;;;;;;;5004893;28;20042;-61
2022/04/15 04:52:25;;;;;;;9.60;5.53;;;;;;;;;;4987661;28;20052;-63
2022/04/15 04:54:51;;;;;;;6.07;4.22;;;;;;;;;;5005394;28;20081;-62
2022/04/15 04:57:17;;;;;;;3.95;3.55;;;;;;;;;;5004986;28;20057;-63
2022/04/15 04:59:43;;;;;;;11.88;3.55;;;;;;;;;;5004984;28;20049;-63
2022/04/15 05:02:12;;;;;;;5.43;3.80;;;;;;;;;;5004886;28;20050;-62
2022/04/15 05:04:38;;;;;;;7.75;4.88;;;;;;;;;;5005188;28;20126;-62
2022/04/15 05:07:05;;;;;;;5.97;4.38;;;;;;;;;;4987693;28;20051;-62
2022/04/15 05:09:31;;;;;;;5.70;4.25;;;;;;;;;;5004966;28;20491;-62
2022/04/15 05:11:57;;;;;;;10.93;5.72;;;;;;;;;;5004867;28;20046;-62
2022/04/15 05:14:23;;;;;;;10.73;4.88;;;;;;;;;;5005279;28;20072;-61
2022/04/15 05:16:49;;;;;;;12.10;5.65;;;;;;;;;;5008586;28;20313;-61
2022/04/15 05:19:15;;;;;;;9.43;5.63;;;;;;;;;;5009052;28;20511;-62
2022/04/15 05:21:42;;;;;;;8.15;6.05;;;;;;;;;;5008843;28;20050;-62
2022/04/15 05:24:08;;;;;;;9.25;6.40;;;;;;;;;;5008897;28;20193;-63
2022/04/15 05:26:35;;;;;;;10.27;6.07;;;;;;;;;;5008888;28;20540;-63
2022/04/15 05:29:01;;;;;;;8.82;6.78;;;;;;;;;;5008660;28;20042;-63
2022/04/15 05:31:27;;;;;;;8.70;7.28;;;;;;;;;;5008620;28;20293;-63
2022/04/15 05:33:53;;;;;;;13.70;7.55;;;;;;;;;;5008405;28;20118;-62
2022/04/15 05:36:19;;;;;;;10.50;7.50;;;;;;;;;;5008682;28;20090;-62
2022/04/15 05:38:46;;;;;;;13.00;7.88;;;;;;;;;;5008583;28;20169;-62
2022/04/15 05:41:12;;;;;;;10.90;7.75;;;;;;;;;;5008500;28;20050;-63
2022/04/15 05:43:38;;;;;;;12.60;8.18;;;;;;;;;;5008642;28;20054;-62
2022/04/15 05:46:04;;;;;;;9.45;7.75;;;;;;;;;;5008540;28;20457;-62
2022/04/15 05:48:30;;;;;;;8.68;7.78;;;;;;;;;;5008022;28;20077;-62
2022/04/15 05:50:58;;;;;;;9.77;7.70;;;;;;;;;;5008184;28;20054;-62
2022/04/15 05:53:24;;;;;;;12.00;7.47;;;;;;;;;;5008270;28;20127;-63
2022/04/15 05:55:50;;;;;;;10.50;7.65;;;;;;;;;;5008232;28;20048;-62
2022/04/15 05:58:16;;;;;;;12.30;8.70;;;;;;;;;;5023495;28;20070;-62
2022/04/15 06:00:42;;;;;;;10.35;7.90;;;;;;;;;;5008086;28;20043;-62
2022/04/15 06:03:08;;;;;;;11.25;8.07;;;;;;;;;;4990256;28;20058;-63
2022/04/15 06:05:35;;;;;;;14.23;8.88;;;;;;;;;;4990562;28;20053;-63
2022/04/15 06:08:01;;;;;;;10.45;8.18;;;;;;;;;;5008189;28;20057;-63
2022/04/15 06:10:27;;;;;;;17.42;9.02;;;;;;;;;;5007650;28;20050;-62
2022/04/15 06:13:09;;;;;;;13.68;9.27;;;;;;;;;;5007939;28;20061;-63
2022/04/15 06:15:36;;;;;;;14.98;10.10;;;;;;;;;;5007662;28;20504;-63
2022/04/15 06:18:02;;;;;;;13.50;11.07;;;;;;;;;;5007679;28;20050;-62
2022/04/15 06:20:29;;;;;;;19.35;11.98;;;;;;;;;;5007681;28;20058;-62
2022/04/15 06:22:55;;;;;;;18.98;11.77;;;;;;;;;;5007726;28;20102;-62
2022/04/15 06:25:21;;;;;;;22.95;13.63;;;;;;;;;;5007671;28;20053;-63
2022/04/15 06:27:49;;;;;;;21.98;12.63;;;;;;;;;;5006862;28;20046;-62
2022/04/15 06:30:15;;;;;;;25.13;13.35;;;;;;;;;;5007547;28;20053;-62
2022/04/15 06:32:41;;;;;;;25.30;14.10;;;;;;;;;;4989340;28;20066;-63
2022/04/15 06:35:08;;;;;;;26.92;13.73;;;;;;;;;;5007704;28;20054;-63
2022/04/15 06:37:34;;;;;;;27.02;12.80;;;;;;;;;;5007619;28;20050;-63
2022/04/15 06:40:00;;;;;;;16.52;11.35;;;;;;;;;;5007502;28;20077;-63
2022/04/15 06:42:28;;;;;;;16.70;11.20;;;;;;;;;;5007543;28;20050;-63
2022/04/15 06:44:54;;;;;;;22.20;12.10;;;;;;;;;;5007404;28;20046;-62
2022/04/15 06:47:21;;;;;;;22.00;12.18;;;;;;;;;;5007140;28;20105;-62
2022/04/15 06:49:47;;;;;;;20.15;11.05;;;;;;;;;;5007380;28;20038;-62
2022/04/15 06:52:14;;;;;;;17.90;11.52;;;;;;;;;;5007238;28;20126;-63
2022/04/15 06:54:41;;;;;;;21.75;11.57;;;;;;;;;;5007103;28;20065;-62
2022/04/15 06:57:07;;;;;;;19.17;10.77;;;;;;;;;;5007196;28;20054;-63
2022/04/15 06:59:33;;;;;;;22.38;10.90;;;;;;;;;;5007079;28;20097;-62
2022/04/15 07:01:59;;;;;;;21.50;10.48;;;;;;;;;;4989233;28;20082;-64
2022/04/15 07:04:27;;;;;;;16.70;9.43;;;;;;;;;;5007245;28;20053;-62
2022/04/15 07:06:53;;;;;;;18.83;8.60;;;;;;;;;;4989536;28;20057;-64
2022/04/15 07:09:19;;;;;;;21.67;10.15;;;;;;;;;;5006898;28;20101;-62
2022/04/15 07:11:45;;;;;;;17.65;8.07;;;;;;;;;;4989361;28;20065;-63
2022/04/15 07:14:11;;;;;;;19.20;8.38;;;;;;;;;;5006772;28;20106;-63
2022/04/15 07:16:37;;;;;;;15.10;8.43;;;;;;;;;;5006642;28;20390;-62
2022/04/15 07:19:04;;;;;;;14.30;8.13;;;;;;;;;;5006670;28;20038;-62
2022/04/15 07:21:40;;;;;;;17.00;7.18;;;;;;;;;;4989228;28;20054;-63
2022/04/15 07:24:07;;;;;;;18.48;7.10;;;;;;;;;;5006690;28;20414;-63
2022/04/15 07:26:33;;;;;;;16.80;6.80;;;;;;;;;;5006554;28;20054;-62
2022/04/15 07:28:59;;;;;;;16.95;6.40;;;;;;;;;;5006658;28;20102;-64
2022/04/15 07:31:26;;;;;;;14.15;6.72;;;;;;;;;;5006428;28;20077;-63
2022/04/15 07:33:52;;;;;;;14.85;6.70;;;;;;;;;;5006083;28;20514;-63
2022/04/15 07:37:18;;;;;;;11.52;6.18;;;;;;;;;;5006103;28;20054;-63
2022/04/15 07:39:14;;;;;;;16.73;7.25;;;;;;;;;;5005320;28;20046;-62
2022/04/15 07:41:40;;;;;;;12.15;6.43;;;;;;;;;;5006401;28;20052;-62
2022/04/15 07:44:08;;;;;;;11.50;6.45;;;;;;;;;;5006294;28;20042;-62
2022/04/15 07:46:34;;;;;;;;;;;;;;;;;;5006537;28;20042;-62
2022/04/15 07:49:00;;;;;;;18.80;7.57;;;;;;;;;;5006080;28;19922;-61
2022/04/15 07:51:27;;;;;;;13.10;6.55;;;;;;;;;;5006121;28;20155;-63
2022/04/15 07:53:53;;;;;;;14.32;6.90;;;;;;;;;;5006106;28;20099;-63
2022/04/15 07:56:19;;;;;;;15.38;7.38;;;;;;;;;;4988557;28;20058;-63
2022/04/15 07:58:45;;;;;;;15.77;7.15;;;;;;;;;;5006080;28;20085;-63
2022/04/15 08:01:11;;;;;;;10.25;5.90;;;;;;;;;;5005880;28;20572;-62
2022/04/15 08:03:37;;;;;;;9.82;5.97;;;;;;;;;;5005590;28;20061;-62
2022/04/15 08:06:04;;;;;;;11.15;5.30;;;;;;;;;;5005815;28;20050;-62
2022/04/15 08:08:30;;;;;;;15.70;6.63;;;;;;;;;;5005785;28;20098;-62
2022/04/15 08:10:57;;;;;;;14.27;6.57;;;;;;;;;;5005673;28;20106;-62
2022/04/15 08:13:26;;;;;;;20.10;6.22;;;;;;;;;;5005663;28;20101;-63
2022/04/15 08:15:55;;;;;;;9.38;6.38;;;;;;;;;;5005569;28;20494;-62
2022/04/15 08:18:22;;;;;;;14.18;6.07;;;;;;;;;;5005572;28;20053;-64
2022/04/15 08:20:50;;;;;;;9.85;5.22;;;;;;;;;;5005896;28;20054;-62
2022/04/15 08:23:17;;;;;;;9.52;5.63;;;;;;;;;;5005773;28;20050;-63
2022/04/15 08:25:44;;;;;;;12.77;5.70;;;;;;;;;;5005556;28;20039;-62
2022/04/15 08:28:10;;;;;;;12.47;6.13;;;;;;;;;;5005557;28;20475;-63
2022/04/15 08:30:37;;;;;;;11.40;5.65;;;;;;;;;;5005252;28;20789;-61
2022/04/15 08:33:05;;;;;;;9.80;5.55;;;;;;;;;;5005178;28;20065;-62
2022/04/15 08:35:32;;;;;;;12.63;5.45;;;;;;;;;;5005357;28;20054;-62
2022/04/15 08:37:59;;;;;;;10.82;5.03;;;;;;;;;;5005319;28;20549;-62
2022/04/15 08:40:27;;;;;;;9.97;5.43;;;;;;;;;;5005345;28;20077;-63
2022/04/15 08:42:53;;;;;;;8.77;5.35;;;;;;;;;;5005364;28;20332;-63
2022/04/15 08:45:25;;;;;;;9.68;4.53;;;;;;;;;;5005165;28;20054;-63
2022/04/15 08:47:57;;;;;;;7.10;4.85;;;;;;;;;;5005272;28;20058;-62
2022/04/15 08:50:23;;;;;;;13.52;5.40;;;;;;;;;;5004700;28;20049;-62
2022/04/15 08:52:51;;;;;;;12.07;5.68;;;;;;;;;;5005188;28;20110;-62
2022/04/15 08:55:17;;;;;;;10.55;5.35;;;;;;;;;;5005277;28;20050;-62
2022/04/15 08:57:43;;;;;;;10.07;5.10;;;;;;;;;;5005018;28;20081;-62
2022/04/15 09:00:09;;;;;;;10.57;4.53;;;;;;;;;;5005168;28;20044;-62
2022/04/15 09:02:37;;;;;;;9.40;4.60;;;;;;;;;;4987455;28;20060;-62
2022/04/15 09:05:03;;;;;;;;;;;;;;;;;;5005547;28;20066;-62
2022/04/15 09:07:30;;;;;;;10.35;4.45;;;;;;;;;;5005037;28;19922;-64
2022/04/15 09:09:57;;;;;;;10.38;4.55;;;;;;;;;;5004864;28;20085;-63
2022/04/15 09:12:28;;;;;;;7.73;3.77;;;;;;;;;;5004854;28;20042;-62
2022/04/15 09:15:01;;;;;;;11.65;5.95;;;;;;;;;;5005021;28;20693;-63
2022/04/15 09:17:30;;;;;;;6.53;4.18;;;;;;;;;;5004745;28;20050;-62
2022/04/15 09:19:59;;;;;;;10.63;5.60;;;;;;;;;;5005005;28;20102;-62
2022/04/15 09:22:26;;;;;;;11.18;5.75;;;;;;;;;;5004940;28;20170;-62
2022/04/15 09:24:52;;;;;;;9.02;4.82;;;;;;;;;;5005124;28;20053;-62
2022/04/15 09:27:19;;;;;;;7.22;5.07;;;;;;;;;;5004776;28;20070;-62
2022/04/15 09:29:46;;;;;;;10.52;4.90;;;;;;;;;;5004848;28;20098;-62
2022/04/15 09:32:14;;;;;;;11.73;4.70;;;;;;;;;;5004454;28;20046;-63
2022/04/15 09:34:52;;;;;;;11.60;5.57;;;;;;;;;;5004885;28;20077;-62
2022/04/15 09:37:20;;;;;;;14.15;6.47;;;;;;;;;;5004720;28;20046;-64
2022/04/15 09:40:09;;;;;;;13.80;6.65;;;;;;;;;;5004852;28;20105;-63
2022/04/15 09:42:35;;;;;;;13.25;5.82;;;;;;;;;;5004806;28;20065;-63
2022/04/15 09:45:18;;;;;;;13.27;5.95;;;;;;;;;;5004775;28;20105;-62
2022/04/15 09:47:44;;;;;;;15.25;7.18;;;;;;;;;;5004648;28;20053;-62
2022/04/15 09:50:22;;;;;;;12.95;5.57;;;;;;;;;;5004837;28;20081;-63
2022/04/15 09:52:49;;;;;;;7.50;5.32;;;;;;;;;;5004688;28;20054;-63
2022/04/15 09:55:20;;;;;;;8.88;5.53;;;;;;;;;;5004832;28;20052;-63
2022/04/15 09:57:47;;;;;;;8.98;5.55;;;;;;;;;;5004754;28;20050;-64
2022/04/15 10:00:13;;;;;;;7.70;4.93;;;;;;;;;;5004601;28;20069;-62
2022/04/15 10:02:39;;;;;;;6.90;4.88;;;;;;;;;;5005776;28;20052;-63
2022/04/15 10:05:06;;;;;;;10.38;5.72;;;;;;;;;;5008325;28;20042;-62
2022/04/15 10:07:34;;;;;;;8.15;5.25;;;;;;;;;;5008108;28;20117;-64
2022/04/15 10:10:01;;;;;;;10.40;5.63;;;;;;;;;;4990613;28;20054;-62
2022/04/15 10:12:28;;;;;;;7.97;5.10;;;;;;;;;;5007943;28;20046;-63
2022/04/15 10:14:55;;;;;;;;;;;;;;;;;;5008518;28;20046;-62
2022/04/15 10:17:23;;;;;;;7.47;4.88;;;;;;;;;;5007912;28;19921;-62
2022/04/15 10:19:49;;;;;;;7.50;4.97;;;;;;;;;;5007956;28;20054;-62
2022/04/15 10:22:16;;;;;;;5.80;4.23;;;;;;;;;;4990375;28;20129;-64
2022/04/15 10:24:42;;;;;;;8.73;5.15;;;;;;;;;;5007686;28;20046;-63
2022/04/15 10:27:11;;;;;;;10.80;5.43;;;;;;;;;;5007808;28;20054;-62
2022/04/15 10:29:38;;;;;;;11.98;6.03;;;;;;;;;;5007604;28;20560;-62
2022/04/15 10:32:14;;;;;;;8.65;5.43;;;;;;;;;;5007050;28;20149;-63
2022/04/15 10:34:47;;;;;;;8.43;4.32;;;;;;;;;;5007517;28;20050;-62
2022/04/15 10:37:13;;;;;;;11.02;4.97;;;;;;;;;;5007316;28;20116;-63
2022/04/15 10:39:50;;;;;;;8.82;5.70;;;;;;;;;;5007423;28;20050;-62
2022/04/15 10:42:20;;;;;;;6.45;4.53;;;;;;;;;;5007304;28;20073;-62
2022/04/15 10:44:46;;;;;;;8.45;5.20;;;;;;;;;;5007490;28;20046;-63
2022/04/15 10:47:26;;;;;;;9.05;5.25;;;;;;;;;;5007325;28;20070;-62
2022/04/15 10:50:03;;;;;;;11.00;5.60;;;;;;;;;;5007324;28;20039;-62
2022/04/15 10:52:30;;;;;;;6.57;3.92;;;;;;;;;;5007044;28;20683;-62
2022/04/15 10:55:03;;;;;;;6.72;3.85;;;;;;;;;;5007160;28;20046;-62
2022/04/15 10:57:40;;;;;;;8.18;5.20;;;;;;;;;;5007203;28;20097;-62
2022/04/15 11:02:57;;;;;;;8.70;5.35;;;;;;;;;;5006836;28;20069;-62
2022/04/15 11:05:32;;;;;;;9.20;5.47;;;;;;;;;;5006979;28;20050;-62
2022/04/15 11:08:04;;;;;;;8.85;5.18;;;;;;;;;;5007033;28;20057;-62
2022/04/15 11:10:46;;;;;;;10.75;5.35;;;;;;;;;;5006831;28;20046;-62
2022/04/15 11:13:32;;;;;;;8.98;6.10;;;;;;;;;;5006425;28;20096;-62
2022/04/15 11:15:58;;;;;;;7.80;5.10;;;;;;;;;;4988878;28;20125;-63
2022/04/15 11:18:25;;;;;;;10.13;6.15;;;;;;;;;;5006765;28;20046;-64
2022/04/15 11:20:52;;;;;;;10.35;5.38;;;;;;;;;;5006728;28;20075;-62
2022/04/15 11:23:18;;;;;;;8.82;5.22;;;;;;;;;;5006582;28;20050;-62
2022/04/15 11:25:44;;;;;;;8.57;4.93;;;;;;;;;;5006626;28;20046;-63
2022/04/15 11:28:10;;;;;;;10.27;4.70;;;;;;;;;;4988978;28;20406;-63
2022/04/15 11:30:37;;;;;;;7.57;5.30;;;;;;;;;;5006371;28;20046;-62
2022/04/15 11:33:06;;;;;;;10.85;4.85;;;;;;;;;;5006248;28;20069;-62
2022/04/15 11:35:33;;;;;;;8.32;5.00;;;;;;;;;;5006235;28;20470;-62
2022/04/15 11:38:04;;;;;;;8.77;6.03;;;;;;;;;;5006452;28;20066;-62
2022/04/15 11:40:34;;;;;;;12.20;6.78;;;;;;;;;;5006582;28;20042;-63
2022/04/15 11:43:01;;;;;;;9.32;5.72;;;;;;;;;;5006354;28;20078;-63
2022/04/15 11:45:40;;;;;;;8.25;5.53;;;;;;;;;;5006341;28;20090;-63
2022/04/15 11:48:25;;;;;;;8.73;5.03;;;;;;;;;;5006231;28;20082;-63
2022/04/15 11:50:55;;;;;;;8.65;5.88;;;;;;;;;;5006163;28;20050;-62
2022/04/15 11:53:23;;;;;;;8.40;5.70;;;;;;;;;;5006224;28;20101;-62
2022/04/15 11:55:56;;;;;;;13.00;6.35;;;;;;;;;;5006187;28;20069;-62
2022/04/15 11:58:23;;;;;;;11.90;5.70;;;;;;;;;;5005995;28;20073;-62
2022/04/15 12:00:53;;;;;;;13.38;6.47;;;;;;;;;;5006153;28;20042;-62
2022/04/15 12:03:20;;;;;;;15.00;6.43;;;;;;;;;;4988059;28;20387;-63
2022/04/15 12:05:46;;;;;;;10.05;5.90;;;;;;;;;;4988470;28;20061;-63
2022/04/15 12:08:12;;;;;;;11.18;6.07;;;;;;;;;;5005993;28;20039;-62
2022/04/15 12:10:42;;;;;;;9.30;6.30;;;;;;;;;;5005796;28;20046;-63
2022/04/15 12:13:08;;;;;;;13.55;6.18;;;;;;;;;;5005776;28;20497;-62
2022/04/15 12:15:35;;;;;;;14.88;6.88;;;;;;;;;;5005607;28;20070;-62
2022/04/15 12:18:02;;;;;;;10.73;6.40;;;;;;;;;;5005520;28;20062;-63
2022/04/15 12:20:29;;;;;;;12.60;6.53;;;;;;;;;;5005652;28;20051;-62
2022/04/15 12:22:57;;;;;;;11.30;6.40;;;;;;;;;;4988234;28;20073;-63
2022/04/15 12:25:23;;;;;;;15.43;5.97;;;;;;;;;;5005097;28;20050;-62
2022/04/15 12:27:50;;;;;;;12.25;6.30;;;;;;;;;;5005528;28;20069;-62
2022/04/15 12:30:44;;;;;;;12.30;6.40;;;;;;;;;;5005412;28;20131;-61
2022/04/15 12:33:11;;;;;;;11.85;6.57;;;;;;;;;;5003030;28;20058;-63
2022/04/15 12:35:37;;;;;;;13.00;5.90;;;;;;;;;;5005305;28;20061;-63
2022/04/15 12:38:05;;;;;;;16.30;7.45;;;;;;;;;;5005343;28;20054;-63
2022/04/15 12:40:32;;;;;;;13.68;6.35;;;;;;;;;;5005419;28;20069;-62
2022/04/15 12:43:11;;;;;;;10.60;5.90;;;;;;;;;;5005422;28;20054;-63
2022/04/15 12:45:53;;;;;;;12.05;5.75;;;;;;;;;;4987846;28;20057;-62
2022/04/15 12:48:19;;;;;;;14.52;6.20;;;;;;;;;;5005201;28;20058;-62
2022/04/15 12:50:46;;;;;;;10.65;6.30;;;;;;;;;;5005308;28;20049;-62
2022/04/15 12:53:17;;;;;;;9.05;6.65;;;;;;;;;;5005336;28;20034;-62
2022/04/15 12:55:44;;;;;;;7.53;5.00;;;;;;;;;;5004993;28;20069;-62
2022/04/15 12:58:19;;;;;;;12.15;6.10;;;;;;;;;;5004917;28;20046;-63
2022/04/15 13:00:48;;;;;;;8.77;5.63;;;;;;;;;;5005057;28;20108;-62
2022/04/15 13:03:17;;;;;;;7.53;5.80;;;;;;;;;;5004695;28;20046;-63
2022/04/15 13:05:44;;;;;;;11.00;5.45;;;;;;;;;;5004964;28;20050;-62
2022/04/15 13:08:10;;;;;;;11.52;5.53;;;;;;;;;;5005045;28;20069;-62
2022/04/15 13:10:36;;;;;;;8.23;6.10;;;;;;;;;;4987509;28;20046;-63
2022/04/15 13:13:02;;;;;;;8.50;5.22;;;;;;;;;;5004916;28;20129;-63
2022/04/15 13:15:28;;;;;;;8.77;5.22;;;;;;;;;;5005003;28;20060;-62
2022/04/15 13:17:55;;;;;;;9.15;4.85;;;;;;;;;;5004750;28;20050;-62
2022/04/15 13:20:21;;;;;;;13.07;5.65;;;;;;;;;;5005053;28;20047;-62
2022/04/15 13:22:47;;;;;;;10.55;6.15;;;;;;;;;;5004881;28;20081;-62
2022/04/15 13:25:13;;;;;;;10.23;5.65;;;;;;;;;;4987512;28;20057;-62
2022/04/15 13:27:39;;;;;;;13.40;6.00;;;;;;;;;;5004712;28;20046;-63
2022/04/15 13:30:06;;;;;;;7.22;5.45;;;;;;;;;;5005025;28;20100;-63
2022/04/15 13:32:32;;;;;;;15.32;5.80;;;;;;;;;;5004296;28;20517;-63
2022/04/15 13:34:58;;;;;;;14.93;6.40;;;;;;;;;;5004947;28;20058;-62
2022/04/15 13:37:24;;;;;;;9.45;5.75;;;;;;;;;;5007669;28;20073;-63
2022/04/15 13:39:50;;;;;;;10.93;5.35;;;;;;;;;;5008516;28;20474;-62
2022/04/15 13:42:17;;;;;;;9.02;5.22;;;;;;;;;;5008495;28;20050;-62
2022/04/15 13:44:43;;;;;;;7.03;5.00;;;;;;;;;;4990893;28;20057;-62
2022/04/15 13:47:09;;;;;;;12.88;6.10;;;;;;;;;;5008347;28;20106;-63
2022/04/15 13:49:36;;;;;;;12.30;5.85;;;;;;;;;;5008443;28;20426;-61
2022/04/15 13:56:34;;;;;;;9.18;5.47;;;;;;;;;;5008080;28;20526;-62
2022/04/15 13:57:33;;;;;;;10.15;6.05;;;;;;;;;;5008227;28;20057;-62
2022/04/15 14:00:06;;;;;;;10.05;5.53;;;;;;;;;;5008336;28;20052;-61
2022/04/15 14:02:32;;;;;;;10.40;5.55;;;;;;;;;;5007839;28;20046;-62
2022/04/15 14:04:59;;;;;;;10.68;5.75;;;;;;;;;;4990472;28;20058;-62
2022/04/15 14:07:25;;;;;;;11.73;6.03;;;;;;;;;;5008119;28;20042;-63
2022/04/15 14:09:51;;;;;;;8.38;5.70;;;;;;;;;;5008159;28;20098;-63
2022/04/15 14:12:18;;;;;;;8.75;5.38;;;;;;;;;;5007942;28;20042;-63
2022/04/15 14:14:44;;;;;;;7.85;5.35;;;;;;;;;;5007842;28;20077;-64
2022/04/15 14:17:10;;;;;;;11.90;5.80;;;;;;;;;;5007685;28;20568;-64
2022/04/15 14:19:36;;;;;;;18.25;7.30;;;;;;;;;;4990408;28;20042;-63
2022/04/15 14:22:02;;;;;;;12.27;5.97;;;;;;;;;;5007749;28;20042;-63
2022/04/15 14:24:28;;;;;;;10.60;6.20;;;;;;;;;;5007795;28;20050;-62
2022/04/15 14:26:54;;;;;;;13.77;6.88;;;;;;;;;;5007586;28;20086;-61
2022/04/15 14:29:21;;;;;;;14.82;6.30;;;;;;;;;;5007703;28;20064;-63
2022/04/15 14:31:48;;;;;;;8.95;5.82;;;;;;;;;;5007365;28;20054;-63
2022/04/15 14:34:14;;;;;;;12.27;6.10;;;;;;;;;;5007326;28;20077;-62
2022/04/15 14:36:40;;;;;;;8.52;5.43;;;;;;;;;;5007347;28;20054;-62
2022/04/15 14:39:06;;;;;;;7.95;5.65;;;;;;;;;;5007515;28;20569;-62
2022/04/15 14:41:32;;;;;;;17.33;6.10;;;;;;;;;;5007293;28;20096;-62
2022/04/15 14:43:58;;;;;;;11.15;5.45;;;;;;;;;;5007351;28;20046;-62